createdAt,value
2023-02-13T00:02:25.469Z,103085.47
2023-02-13T00:04:51.946Z,103099.94
2023-02-13T00:07:18.412Z,103091.59
2023-02-13T00:09:44.920Z,103093.69
2023-02-13T00:12:11.335Z,103090.13
2023-02-13T00:14:39.338Z,103086.94
2023-02-13T00:17:06.604Z,103080.31
2023-02-13T00:19:33.564Z,103092.22
2023-02-13T00:22:00.133Z,103086.56
2023-02-13T00:24:26.558Z,103083.13
2023-02-13T00:26:53.133Z,103087.53
2023-02-13T00:29:19.807Z,103089.38
2023-02-13T00:31:46.397Z,103076.63
2023-02-13T00:34:12.973Z,103075.63
2023-02-13T00:36:39.476Z,103073.06
2023-02-13T00:39:05.951Z,103068.41
2023-02-13T00:41:32.379Z,103071.97
2023-02-13T00:43:58.817Z,103072.94
2023-02-13T00:46:25.239Z,103075.16
2023-02-13T00:48:51.714Z,103075.75
2023-02-13T00:51:18.204Z,103068.53
2023-02-13T00:53:44.773Z,103069.28
2023-02-13T00:56:11.358Z,103067.53
2023-02-13T00:58:38.807Z,103063.25
2023-02-13T01:01:05.470Z,103058.72
2023-02-13T01:03:31.910Z,103050.38
2023-02-13T01:05:58.470Z,103042.75
2023-02-13T01:08:25.098Z,103052.69
2023-02-13T01:10:51.609Z,103054.66
2023-02-13T01:13:18.599Z,103053.28
2023-02-13T01:15:46.610Z,103049.72
2023-02-13T01:18:15.477Z,103046.91
2023-02-13T01:20:43.940Z,103046.91
2023-02-13T01:23:11.775Z,103038.69
2023-02-13T01:25:42.588Z,103039.91
2023-02-13T01:28:09.246Z,103041.28
2023-02-13T01:30:36.813Z,103044.94
2023-02-13T01:33:03.458Z,103053.28
2023-02-13T01:35:29.906Z,103048.50
2023-02-13T01:37:56.320Z,103036.72
2023-02-13T01:40:22.715Z,103045.28
2023-02-13T01:42:49.186Z,103039.78
2023-02-13T01:45:28.201Z,103041.72
2023-02-13T01:47:57.523Z,103031.69
2023-02-13T01:50:35.032Z,103035.25
2023-02-13T01:53:14.530Z,103042.47
2023-02-13T01:56:13.446Z,103038.69
2023-02-13T01:58:42.974Z,103045.94
2023-02-13T02:01:10.653Z,103032.31
2023-02-13T02:03:44.413Z,103036.97
2023-02-13T02:06:18.538Z,103040.97
2023-02-13T02:08:49.092Z,103043.44
2023-02-13T02:11:32.531Z,103049.94
2023-02-13T02:14:00.316Z,103044.78
2023-02-13T02:16:27.148Z,103048.84
2023-02-13T02:18:53.697Z,103052.31
2023-02-13T02:21:41.537Z,103048.25
2023-02-13T02:24:26.977Z,103051.53
2023-02-13T02:26:56.365Z,103048.00
2023-02-13T02:29:55.839Z,103054.03
2023-02-13T02:32:44.090Z,103054.47
2023-02-13T02:35:39.513Z,103052.78
2023-02-13T02:38:21.910Z,103040.97
2023-02-13T02:41:02.089Z,103050.69
2023-02-13T02:43:44.834Z,103039.16
2023-02-13T02:46:17.866Z,103042.84
2023-02-13T02:49:21.612Z,103045.66
2023-02-13T02:52:15.279Z,103047.59
2023-02-13T02:55:07.661Z,103038.28
2023-02-13T02:58:00.746Z,103036.69
2023-02-13T03:00:47.572Z,103047.59
2023-02-13T03:03:41.565Z,103043.44
2023-02-13T03:06:36.813Z,103047.72
2023-02-13T03:09:28.850Z,103050.53
2023-02-13T03:12:15.172Z,103048.09
2023-02-13T03:14:42.475Z,103052.41
2023-02-13T03:17:31.301Z,103055.22
2023-02-13T03:20:19.344Z,103051.03
2023-02-13T03:23:18.003Z,103056.53
2023-02-13T03:26:15.995Z,103047.09
2023-02-13T03:29:21.301Z,103054.59
2023-02-13T03:32:04.033Z,103040.63
2023-02-13T03:34:56.002Z,103059.25
2023-02-13T03:37:56.099Z,103056.94
2023-02-13T03:41:01.592Z,103049.91
2023-02-13T03:43:33.426Z,103049.56
2023-02-13T03:46:02.337Z,103049.06
2023-02-13T03:48:56.964Z,103049.91
2023-02-13T03:51:36.442Z,103054.47
2023-02-13T03:54:12.550Z,103048.66
2023-02-13T03:57:00.671Z,103053.34
2023-02-13T03:59:32.740Z,103048.66
2023-02-13T04:02:11.353Z,103049.19
2023-02-13T04:04:50.923Z,103047.56
2023-02-13T04:07:32.092Z,103039.97
2023-02-13T04:10:14.458Z,103049.66
2023-02-13T04:12:52.967Z,103048.91
2023-02-13T04:15:34.710Z,103046.31
2023-02-13T04:18:15.990Z,103044.25
2023-02-13T04:20:42.520Z,103054.53
2023-02-13T04:23:10.477Z,103056.88
2023-02-13T04:25:40.209Z,103057.84
2023-02-13T04:28:07.283Z,103047.53
2023-02-13T04:30:34.110Z,103059.69
2023-02-13T04:33:00.571Z,103066.06
2023-02-13T04:35:27.053Z,103061.13
2023-02-13T04:37:53.473Z,103060.50
2023-02-13T04:40:20.033Z,103059.66
2023-02-13T04:42:49.776Z,103063.69
2023-02-13T04:45:16.857Z,103062.69
2023-02-13T04:47:43.425Z,103050.66
2023-02-13T04:50:10.228Z,103053.13
2023-02-13T04:52:36.749Z,103053.25
2023-02-13T04:55:03.904Z,103047.44
2023-02-13T04:57:30.353Z,103042.78
2023-02-13T04:59:56.789Z,103047.41
2023-02-13T05:02:23.237Z,103040.88
2023-02-13T05:04:49.751Z,103041.09
2023-02-13T05:07:16.160Z,103038.53
2023-02-13T05:09:42.566Z,103042.31
2023-02-13T05:12:09.037Z,103044.16
2023-02-13T05:14:35.494Z,103040.94
2023-02-13T05:17:02.008Z,103042.25
2023-02-13T05:19:28.419Z,103042.34
2023-02-13T05:22:13.187Z,103045.31
2023-02-13T05:24:39.672Z,103056.81
2023-02-13T05:27:06.141Z,103051.66
2023-02-13T05:29:32.567Z,103054.78
2023-02-13T05:31:59.948Z,103036.84
2023-02-13T05:34:28.090Z,103050.38
2023-02-13T05:36:55.095Z,103048.69
2023-02-13T05:39:21.749Z,103044.50
2023-02-13T05:41:49.228Z,103055.72
2023-02-13T05:44:16.584Z,103045.38
2023-02-13T05:46:45.256Z,103047.56
2023-02-13T05:49:13.940Z,103058.25
2023-02-13T05:51:43.263Z,103052.09
2023-02-13T05:54:09.818Z,103054.03
2023-02-13T05:56:36.642Z,103050.50
2023-02-13T05:59:03.939Z,103055.34
2023-02-13T06:01:30.432Z,103057.31
2023-02-13T06:03:59.057Z,103061.91
2023-02-13T06:06:26.214Z,103056.88
2023-02-13T06:08:52.811Z,103063.34
2023-02-13T06:11:19.860Z,103057.50
2023-02-13T06:13:46.311Z,103060.09
2023-02-13T06:16:13.234Z,103058.59
2023-02-13T06:18:40.150Z,103057.97
2023-02-13T06:21:07.946Z,103060.56
2023-02-13T06:23:34.863Z,103031.25
2023-02-13T06:26:06.939Z,103064.22
2023-02-13T06:28:34.118Z,103055.81
2023-02-13T06:31:01.707Z,103064.00
2023-02-13T06:33:28.500Z,103052.06
2023-02-13T06:35:54.963Z,103062.72
2023-02-13T06:38:21.554Z,103058.19
2023-02-13T06:40:49.349Z,103054.94
2023-02-13T06:43:16.559Z,103053.94
2023-02-13T06:45:43.497Z,103051.63
2023-02-13T06:48:10.027Z,103057.72
2023-02-13T06:50:36.478Z,103053.94
2023-02-13T06:53:03.004Z,103051.41
2023-02-13T06:55:29.476Z,103058.41
2023-02-13T06:57:55.947Z,103051.19
2023-02-13T07:00:25.645Z,103044.59
2023-02-13T07:02:52.772Z,103050.63
2023-02-13T07:05:19.347Z,103047.94
2023-02-13T07:07:45.850Z,103053.53
2023-02-13T07:10:13.534Z,103051.06
2023-02-13T07:12:40.043Z,103049.25
2023-02-13T07:15:07.997Z,103058.16
2023-02-13T07:17:34.550Z,103046.44
2023-02-13T07:20:01.129Z,103054.53
2023-02-13T07:22:27.818Z,103053.97
2023-02-13T07:25:03.794Z,103061.84
2023-02-13T07:27:30.377Z,103061.22
2023-02-13T07:29:57.504Z,103049.78
2023-02-13T07:32:24.854Z,103060.97
2023-02-13T07:35:01.166Z,103060.34
2023-02-13T07:37:29.410Z,103051.72
2023-02-13T07:39:56.023Z,103055.34
2023-02-13T07:42:22.577Z,103057.22
2023-02-13T07:44:49.181Z,103051.06
2023-02-13T07:47:16.393Z,103060.31
2023-02-13T07:49:44.587Z,103064.97
2023-02-13T07:52:11.011Z,103060.31
2023-02-13T07:54:37.482Z,103068.66
2023-02-13T07:57:04.287Z,103057.13
2023-02-13T07:59:30.751Z,103066.06
2023-02-13T08:01:57.273Z,103058.19
2023-02-13T08:04:25.457Z,103055.28
2023-02-13T08:06:52.814Z,103062.06
2023-02-13T08:09:40.844Z,103056.69
2023-02-13T08:12:09.367Z,103059.66
2023-02-13T08:14:35.887Z,103070.22
2023-02-13T08:17:02.436Z,103065.50
2023-02-13T08:19:29.385Z,103070.50
2023-02-13T08:21:56.349Z,103066.75
2023-02-13T08:24:24.088Z,103076.44
2023-02-13T08:26:50.625Z,103068.03
2023-02-13T08:29:17.098Z,103076.72
2023-02-13T08:31:43.737Z,103064.34
2023-02-13T08:34:10.677Z,103080.28
2023-02-13T08:36:37.153Z,103068.25
2023-02-13T08:39:03.681Z,103079.44
2023-02-13T08:41:30.126Z,103069.13
2023-02-13T08:43:56.559Z,103077.59
2023-02-13T08:46:23.126Z,103079.84
2023-02-13T08:48:50.201Z,103083.06
2023-02-13T08:51:16.857Z,103080.47
2023-02-13T08:53:43.455Z,103085.75
2023-02-13T08:56:10.087Z,103076.94
2023-02-13T08:58:36.603Z,103096.19
2023-02-13T09:01:07.849Z,103093.50
2023-02-13T09:03:35.112Z,103086.19
2023-02-13T09:06:02.670Z,103080.91
2023-02-13T09:08:29.441Z,103077.88
2023-02-13T09:11:03.937Z,103083.78
2023-02-13T09:13:33.475Z,103080.41
2023-02-13T09:16:08.176Z,103078.22
2023-02-13T09:18:35.064Z,103074.78
2023-02-13T09:21:04.848Z,103080.28
2023-02-13T09:23:33.563Z,103079.94
2023-02-13T09:26:02.027Z,103078.97
2023-02-13T09:28:34.176Z,103074.56
2023-02-13T09:31:06.212Z,103081.44
2023-02-13T09:33:32.886Z,103077.13
2023-02-13T09:35:59.613Z,103079.72
2023-02-13T09:38:26.293Z,103082.19
2023-02-13T09:41:00.979Z,103080.97
2023-02-13T09:43:49.023Z,103082.69
2023-02-13T09:46:32.013Z,103077.56
2023-02-13T09:49:01.692Z,103080.78
2023-02-13T09:51:29.025Z,103079.81
2023-02-13T09:54:00.181Z,103083.25
2023-02-13T09:56:39.217Z,103078.00
2023-02-13T09:59:50.098Z,103074.75
2023-02-13T10:02:42.667Z,103079.91
2023-02-13T10:05:42.496Z,103085.06
2023-02-13T10:08:21.105Z,103082.97
2023-02-13T10:10:53.124Z,103085.44
2023-02-13T10:13:48.205Z,103078.09
2023-02-13T10:16:21.063Z,103077.75
2023-02-13T10:18:55.514Z,103079.09
2023-02-13T10:21:28.243Z,103076.91
2023-02-13T10:24:02.368Z,103080.13
2023-02-13T10:26:46.382Z,103076.44
2023-02-13T10:29:40.038Z,103081.59
2023-02-13T10:32:10.706Z,103068.84
2023-02-13T10:34:46.012Z,103080.00
2023-02-13T10:37:18.321Z,103073.50
2023-02-13T10:39:48.301Z,103079.41
2023-02-13T10:42:27.740Z,103070.00
2023-02-13T10:45:09.231Z,103069.88
2023-02-13T10:48:09.707Z,103067.66
2023-02-13T10:51:02.047Z,103059.94
2023-02-13T10:53:54.453Z,103066.69
2023-02-13T10:56:29.090Z,103051.59
2023-02-13T10:59:10.624Z,103062.38
2023-02-13T11:01:44.923Z,103061.28
2023-02-13T11:04:15.228Z,103050.84
2023-02-13T11:06:47.173Z,103048.84
2023-02-13T11:09:14.007Z,103056.59
2023-02-13T11:11:43.391Z,103046.53
2023-02-13T11:14:13.788Z,103036.31
2023-02-13T11:17:09.751Z,103042.09
2023-02-13T11:19:51.602Z,103024.03
2023-02-13T11:22:42.659Z,103027.97
2023-02-13T11:25:29.995Z,103018.34
2023-02-13T11:28:16.392Z,103012.44
2023-02-13T11:30:43.045Z,103022.25
2023-02-13T11:33:27.637Z,103018.19
2023-02-13T11:36:14.409Z,103020.25
2023-02-13T11:38:41.347Z,103002.44
2023-02-13T11:41:13.884Z,103003.91
2023-02-13T11:44:02.321Z,102999.06
2023-02-13T11:46:31.214Z,102998.81
2023-02-13T11:49:03.838Z,102994.16
2023-02-13T11:51:41.324Z,102997.19
2023-02-13T11:54:22.211Z,102986.84
2023-02-13T11:57:04.097Z,102985.56
2023-02-13T11:59:39.908Z,102978.03
2023-02-13T12:02:26.830Z,102974.56
2023-02-13T12:04:55.957Z,102961.75
2023-02-13T12:07:26.584Z,102957.78
2023-02-13T12:10:18.768Z,102966.09
2023-02-13T12:13:10.876Z,102957.44
2023-02-13T12:15:37.813Z,102962.72
2023-02-13T12:18:24.928Z,102962.09
2023-02-13T12:21:15.489Z,102949.13
2023-02-13T12:23:54.115Z,102954.16
2023-02-13T12:26:33.821Z,102960.03
2023-02-13T12:29:18.723Z,102952.59
2023-02-13T12:31:54.128Z,102945.22
2023-02-13T12:34:26.548Z,102941.66
2023-02-13T12:36:59.013Z,102943.13
2023-02-13T12:39:33.915Z,102947.81
2023-02-13T12:42:22.308Z,102946.28
2023-02-13T12:45:03.651Z,102936.03
2023-02-13T12:47:34.324Z,102940.19
2023-02-13T12:50:21.042Z,102937.94
2023-02-13T12:53:13.601Z,102928.41
2023-02-13T12:56:08.759Z,102927.84
2023-02-13T12:59:12.308Z,102920.81
2023-02-13T13:02:15.955Z,102900.88
2023-02-13T13:05:14.554Z,102908.28
2023-02-13T13:08:13.548Z,102916.03
2023-02-13T13:11:01.642Z,102911.47
2023-02-13T13:13:52.715Z,102908.19
2023-02-13T13:16:45.291Z,102904.88
2023-02-13T13:19:20.360Z,102904.34
2023-02-13T13:22:05.283Z,102905.47
2023-02-13T13:24:31.745Z,102898.03
2023-02-13T13:27:00.290Z,102905.75
2023-02-13T13:29:36.453Z,102897.75
2023-02-13T13:32:07.480Z,102897.22
2023-02-13T13:34:37.416Z,102894.81
2023-02-13T13:37:11.828Z,102882.09
2023-02-13T13:40:04.492Z,102885.66
2023-02-13T13:42:51.928Z,102884.22
2023-02-13T13:45:35.892Z,102883.78
2023-02-13T13:48:22.308Z,102888.94
2023-02-13T13:50:49.441Z,102887.91
2023-02-13T13:53:23.156Z,102875.94
2023-02-13T13:55:49.598Z,102865.78
2023-02-13T13:58:49.436Z,102869.38
2023-02-13T14:08:29.157Z,102863.22
2023-02-13T14:11:02.792Z,102866.09
2023-02-13T14:13:36.557Z,102870.25
2023-02-13T14:16:05.360Z,102866.38
2023-02-13T14:18:32.603Z,102853.25
2023-02-13T14:21:01.880Z,102861.25
2023-02-13T14:23:50.602Z,102844.97
2023-02-13T14:26:17.106Z,102855.38
2023-02-13T14:28:49.451Z,102854.22
2023-02-13T14:31:25.344Z,102855.53
2023-02-13T14:34:04.859Z,102844.38
2023-02-13T14:36:34.299Z,102847.97
2023-02-13T14:39:20.968Z,102852.69
2023-02-13T14:41:56.799Z,102842.41
2023-02-13T14:44:47.113Z,102850.53
2023-02-13T14:47:42.896Z,102839.84
2023-02-13T14:50:19.678Z,102850.94
2023-02-13T14:52:47.854Z,102848.81
2023-02-13T14:55:33.689Z,102847.22
2023-02-13T14:58:29.400Z,102842.66
2023-02-13T15:01:02.447Z,102854.38
2023-02-13T15:03:44.289Z,102849.78
2023-02-13T15:06:27.979Z,102841.50
2023-02-13T15:08:56.184Z,102847.06
2023-02-13T15:11:42.757Z,102845.38
2023-02-13T15:14:16.009Z,102836.94
2023-02-13T15:16:43.629Z,102837.22
2023-02-13T15:19:19.660Z,102838.34
2023-02-13T15:21:56.608Z,102840.53
2023-02-13T15:24:24.037Z,102828.69
2023-02-13T15:26:55.043Z,102827.38
2023-02-13T15:29:29.181Z,102821.56
2023-02-13T15:31:58.454Z,102812.13
2023-02-13T15:34:34.415Z,102828.41
2023-02-13T15:37:01.019Z,102832.41
2023-02-13T15:39:32.330Z,102833.38
2023-02-13T15:42:01.097Z,102824.13
2023-02-13T15:44:29.521Z,102829.09
2023-02-13T15:47:03.141Z,102812.69
2023-02-13T15:49:39.254Z,102817.56
2023-02-13T15:52:18.261Z,102828.94
2023-02-13T15:54:53.718Z,102829.41
2023-02-13T15:57:21.685Z,102835.81
2023-02-13T15:59:49.522Z,102827.28
2023-02-13T16:02:22.267Z,102824.72
2023-02-13T16:04:52.410Z,102825.53
2023-02-13T16:07:19.072Z,102833.00
2023-02-13T16:09:45.600Z,102828.84
2023-02-13T16:12:20.659Z,102829.44
2023-02-13T16:15:02.920Z,102816.44
2023-02-13T16:17:33.528Z,102823.84
2023-02-13T16:20:06.702Z,102834.97
2023-02-13T16:22:51.522Z,102834.16
2023-02-13T16:25:32.852Z,102828.44
2023-02-13T16:28:02.787Z,102833.16
2023-02-13T16:30:40.763Z,102829.16
2023-02-13T16:33:16.195Z,102826.88
2023-02-13T16:35:55.325Z,102832.44
2023-02-13T16:38:43.670Z,102815.31
2023-02-13T16:41:19.266Z,102833.00
2023-02-13T16:43:47.057Z,102840.72
2023-02-13T16:46:19.491Z,102840.53
2023-02-13T16:48:57.437Z,102840.97
2023-02-13T16:51:29.719Z,102843.25
2023-02-13T16:54:01.920Z,102835.41
2023-02-13T16:56:36.249Z,102834.06
2023-02-13T16:59:41.050Z,102836.50
2023-02-13T17:02:40.786Z,102842.34
2023-02-13T17:05:07.115Z,102857.75
2023-02-13T17:07:43.604Z,102863.56
2023-02-13T17:10:20.771Z,102856.13
2023-02-13T17:12:48.937Z,102856.41
2023-02-13T17:15:18.368Z,102866.81
2023-02-13T17:17:45.554Z,102859.97
2023-02-13T17:20:40.313Z,102863.06
2023-02-13T17:23:07.978Z,102862.34
2023-02-13T17:25:37.366Z,102848.88
2023-02-13T17:28:11.406Z,102862.97
2023-02-13T17:30:37.974Z,102862.41
2023-02-13T17:33:07.892Z,102863.50
2023-02-13T17:35:35.325Z,102866.53
2023-02-13T17:38:01.844Z,102867.34
2023-02-13T17:40:30.143Z,102860.38
2023-02-13T17:42:58.132Z,102856.94
2023-02-13T17:45:27.548Z,102860.06
2023-02-13T17:47:54.146Z,102862.91
2023-02-13T17:50:21.321Z,102863.31
2023-02-13T17:52:49.039Z,102860.00
2023-02-13T17:55:27.308Z,102857.81
2023-02-13T17:57:58.697Z,102868.66
2023-02-13T18:00:28.207Z,102867.94
2023-02-13T18:02:54.931Z,102875.31
2023-02-13T18:05:21.891Z,102868.72
2023-02-13T18:07:48.896Z,102874.41
2023-02-13T18:10:17.075Z,102870.50
2023-02-13T18:12:44.272Z,102878.63
2023-02-13T18:15:11.846Z,102859.78
2023-02-13T18:17:38.616Z,102871.91
2023-02-13T18:20:06.633Z,102872.03
2023-02-13T18:22:33.216Z,102877.69
2023-02-13T18:25:01.251Z,102877.97
2023-02-13T18:27:28.253Z,102884.50
2023-02-13T18:29:56.145Z,102872.94
2023-02-13T18:32:23.279Z,102875.66
2023-02-13T18:34:50.171Z,102874.56
2023-02-13T18:37:18.199Z,102879.22
2023-02-13T18:39:44.933Z,102870.63
2023-02-13T18:42:13.167Z,102882.44
2023-02-13T18:44:40.720Z,102867.72
2023-02-13T18:47:07.750Z,102878.28
2023-02-13T18:49:34.264Z,102876.84
2023-02-13T18:52:01.513Z,102883.50
2023-02-13T18:54:28.547Z,102878.34
2023-02-13T18:56:55.017Z,102885.72
2023-02-13T18:59:22.977Z,102882.41
2023-02-13T19:01:49.989Z,102892.75
2023-02-13T19:04:16.545Z,102887.59
2023-02-13T19:06:44.158Z,102881.88
2023-02-13T19:09:10.810Z,102891.69
2023-02-13T19:11:38.772Z,102887.53
2023-02-13T19:14:06.573Z,102890.34
2023-02-13T19:16:34.996Z,102894.03
2023-02-13T19:19:04.447Z,102890.59
2023-02-13T19:21:31.535Z,102889.28
2023-02-13T19:23:58.594Z,102900.78
2023-02-13T19:26:26.668Z,102887.66
2023-02-13T19:28:54.031Z,102885.63
2023-02-13T19:31:28.401Z,102895.56
2023-02-13T19:33:55.257Z,102902.78
2023-02-13T19:36:24.070Z,102900.63
2023-02-13T19:38:55.632Z,102901.09
2023-02-13T19:41:22.457Z,102904.91
2023-02-13T19:43:53.557Z,102897.88
2023-02-13T19:46:23.109Z,102904.91
2023-02-13T19:48:50.298Z,102897.88
2023-02-13T19:51:20.749Z,102901.81
2023-02-13T19:53:47.771Z,102905.88
2023-02-13T19:56:14.615Z,102906.13
2023-02-13T19:58:43.085Z,102893.47
2023-02-13T20:01:13.218Z,102894.84
2023-02-13T20:03:40.626Z,102899.63
2023-02-13T20:06:10.606Z,102893.47
2023-02-13T20:08:37.775Z,102889.56
2023-02-13T20:11:07.824Z,102891.03
2023-02-13T20:13:34.451Z,102895.72
2023-02-13T20:16:19.775Z,102904.03
2023-02-13T20:18:46.264Z,102899.53
2023-02-13T20:21:15.172Z,102905.88
2023-02-13T20:23:42.679Z,102899.66
2023-02-13T20:26:13.662Z,102908.44
2023-02-13T20:28:41.769Z,102906.63
2023-02-13T20:31:10.879Z,102910.06
2023-02-13T20:33:39.040Z,102912.16
2023-02-13T20:36:20.790Z,102915.09
2023-02-13T20:38:48.382Z,102904.53
2023-02-13T20:41:17.279Z,102910.91
2023-02-13T20:43:44.354Z,102911.41
2023-02-13T20:46:12.205Z,102908.94
2023-02-13T20:48:40.109Z,102904.16
2023-02-13T20:51:09.151Z,102902.56
2023-02-13T20:53:35.549Z,102907.97
2023-02-13T20:56:07.524Z,102915.44
2023-02-13T20:58:34.481Z,102912.13
2023-02-13T21:01:01.505Z,102903.56
2023-02-13T21:03:28.322Z,102897.75
2023-02-13T21:05:54.830Z,102909.19
2023-02-13T21:08:27.519Z,102902.28
2023-02-13T21:10:54.116Z,102897.53
2023-02-13T21:13:20.999Z,102883.16
2023-02-13T21:15:49.613Z,102910.88
2023-02-13T21:18:16.082Z,102909.25
2023-02-13T21:20:42.603Z,102900.53
2023-02-13T21:23:09.063Z,102906.44
2023-02-13T21:25:35.638Z,102904.72
2023-02-13T21:28:02.154Z,102902.50
2023-02-13T21:30:28.615Z,102898.19
2023-02-13T21:32:55.104Z,102897.34
2023-02-13T21:35:21.583Z,102896.97
2023-02-13T21:37:50.182Z,102902.34
2023-02-13T21:40:16.877Z,102900.84
2023-02-13T21:42:43.322Z,102892.28
2023-02-13T21:45:11.391Z,102899.25
2023-02-13T21:47:38.271Z,102890.78
2023-02-13T21:50:06.160Z,102900.47
2023-02-13T21:52:32.626Z,102897.00
2023-02-13T21:54:59.128Z,102892.09
2023-02-13T21:57:25.730Z,102894.28
2023-02-13T21:59:52.143Z,102896.63
2023-02-13T22:02:19.914Z,102895.28
2023-02-13T22:04:46.419Z,102886.44
2023-02-13T22:07:12.880Z,102897.97
2023-02-13T22:09:39.393Z,102889.38
2023-02-13T22:12:05.909Z,102855.88
2023-02-13T22:14:32.349Z,102877.75
2023-02-13T22:16:58.944Z,102880.31
2023-02-13T22:19:25.420Z,102877.34
2023-02-13T22:21:51.861Z,102882.34
2023-02-13T22:24:18.342Z,102889.16
2023-02-13T22:26:45.204Z,102882.78
2023-02-13T22:29:14.868Z,102887.53
2023-02-13T22:31:42.317Z,102887.53
2023-02-13T22:34:12.183Z,102884.84
2023-02-13T22:36:38.840Z,102878.97
2023-02-13T22:39:06.004Z,102882.38
2023-02-13T22:41:32.485Z,102876.38
2023-02-13T22:43:59.002Z,102887.50
2023-02-13T22:46:31.603Z,102889.09
2023-02-13T22:48:59.218Z,102893.38
2023-02-13T22:51:29.380Z,102895.69
2023-02-13T22:53:57.562Z,102896.88
2023-02-13T22:56:25.605Z,102887.19
2023-02-13T22:58:52.285Z,102872.53
2023-02-13T23:01:20.685Z,102885.88
2023-02-13T23:03:47.563Z,102880.00
2023-02-13T23:06:14.805Z,102893.28
2023-02-13T23:08:41.775Z,102887.59
2023-02-13T23:11:29.597Z,102887.19
2023-02-13T23:13:56.449Z,102887.91
2023-02-13T23:16:23.101Z,102890.38
2023-02-13T23:18:57.219Z,102874.78
2023-02-13T23:21:24.756Z,102887.19
2023-02-13T23:23:51.711Z,102880.44
2023-02-13T23:26:19.074Z,102875.16
2023-02-13T23:28:45.692Z,102884.94
2023-02-13T23:31:12.306Z,102885.91
2023-02-13T23:33:38.849Z,102893.97
2023-02-13T23:36:05.727Z,102891.41
2023-02-13T23:38:32.229Z,102894.59
2023-02-13T23:41:06.396Z,102895.91
2023-02-13T23:43:32.933Z,102891.72
2023-02-13T23:45:59.484Z,102896.22
2023-02-13T23:48:25.922Z,102901.72
2023-02-13T23:50:53.191Z,102901.22
2023-02-13T23:53:19.709Z,102911.84
2023-02-13T23:55:46.280Z,102903.03
2023-02-13T23:58:12.756Z,102903.13
